sensor_id;sensor_type;location;lat;lon;timestamp;P1;durP1;ratioP1;P2;durP2;ratioP2
908;SDS011;441;51.192;6.788;2023-09-08T00:01:01;35.27;;;33.57;;
908;SDS011;441;51.192;6.788;2023-09-08T00:03:28;36.23;;;34.43;;
908;SDS011;441;51.192;6.788;2023-09-08T00:05:54;36.53;;;34.83;;
908;SDS011;441;51.192;6.788;2023-09-08T00:08:21;37.10;;;35.20;;
908;SDS011;441;51.192;6.788;2023-09-08T00:10:49;36.00;;;34.20;;
908;SDS011;441;51.192;6.788;2023-09-08T00:13:17;37.33;;;35.33;;
908;SDS011;441;51.192;6.788;2023-09-08T00:15:44;35.83;;;33.97;;
908;SDS011;441;51.192;6.788;2023-09-08T00:18:11;35.53;;;33.73;;
908;SDS011;441;51.192;6.788;2023-09-08T00:20:38;36.27;;;34.23;;
908;SDS011;441;51.192;6.788;2023-09-08T00:23:06;35.80;;;33.90;;
908;SDS011;441;51.192;6.788;2023-09-08T00:25:33;35.50;;;33.60;;
908;SDS011;441;51.192;6.788;2023-09-08T00:28:00;36.03;;;34.17;;
908;SDS011;441;51.192;6.788;2023-09-08T00:30:29;35.63;;;33.83;;
908;SDS011;441;51.192;6.788;2023-09-08T00:32:56;36.40;;;34.40;;
908;SDS011;441;51.192;6.788;2023-09-08T00:35:23;37.27;;;35.47;;
908;SDS011;441;51.192;6.788;2023-09-08T00:37:50;35.00;;;33.20;;
908;SDS011;441;51.192;6.788;2023-09-08T00:40:17;35.60;;;33.80;;
908;SDS011;441;51.192;6.788;2023-09-08T00:42:44;36.77;;;34.87;;
908;SDS011;441;51.192;6.788;2023-09-08T00:45:12;36.53;;;34.67;;
908;SDS011;441;51.192;6.788;2023-09-08T00:47:40;35.30;;;33.53;;
908;SDS011;441;51.192;6.788;2023-09-08T00:50:07;35.27;;;33.47;;
908;SDS011;441;51.192;6.788;2023-09-08T00:52:34;37.57;;;35.50;;
908;SDS011;441;51.192;6.788;2023-09-08T00:55:02;36.40;;;34.60;;
908;SDS011;441;51.192;6.788;2023-09-08T00:57:29;36.20;;;34.40;;
908;SDS011;441;51.192;6.788;2023-09-08T00:59:56;35.27;;;33.57;;
908;SDS011;441;51.192;6.788;2023-09-08T01:02:24;35.83;;;33.93;;
908;SDS011;441;51.192;6.788;2023-09-08T01:04:52;35.80;;;34.00;;
908;SDS011;441;51.192;6.788;2023-09-08T01:07:19;35.97;;;34.07;;
908;SDS011;441;51.192;6.788;2023-09-08T01:09:46;36.30;;;34.50;;
908;SDS011;441;51.192;6.788;2023-09-08T01:12:15;36.13;;;34.33;;
908;SDS011;441;51.192;6.788;2023-09-08T01:14:41;37.00;;;34.80;;
908;SDS011;441;51.192;6.788;2023-09-08T01:17:08;35.70;;;33.70;;
908;SDS011;441;51.192;6.788;2023-09-08T01:19:37;36.50;;;34.60;;
908;SDS011;441;51.192;6.788;2023-09-08T01:25:20;36.33;;;34.53;;
908;SDS011;441;51.192;6.788;2023-09-08T01:27:48;37.83;;;35.93;;
908;SDS011;441;51.192;6.788;2023-09-08T01:30:17;36.90;;;35.00;;
908;SDS011;441;51.192;6.788;2023-09-08T01:32:45;37.50;;;35.70;;
908;SDS011;441;51.192;6.788;2023-09-08T01:35:12;36.57;;;34.77;;
908;SDS011;441;51.192;6.788;2023-09-08T01:37:40;38.53;;;36.63;;
908;SDS011;441;51.192;6.788;2023-09-08T01:40:08;36.40;;;34.50;;
908;SDS011;441;51.192;6.788;2023-09-08T01:42:37;36.63;;;34.73;;
908;SDS011;441;51.192;6.788;2023-09-08T01:45:05;37.40;;;35.60;;
908;SDS011;441;51.192;6.788;2023-09-08T01:47:33;38.23;;;36.23;;
908;SDS011;441;51.192;6.788;2023-09-08T01:50:00;35.50;;;33.70;;
908;SDS011;441;51.192;6.788;2023-09-08T01:52:28;36.17;;;34.37;;
908;SDS011;441;51.192;6.788;2023-09-08T01:54:54;36.73;;;34.77;;
908;SDS011;441;51.192;6.788;2023-09-08T01:57:21;38.43;;;36.43;;
908;SDS011;441;51.192;6.788;2023-09-08T01:59:50;36.83;;;35.03;;
908;SDS011;441;51.192;6.788;2023-09-08T02:02:16;37.97;;;35.83;;
908;SDS011;441;51.192;6.788;2023-09-08T02:04:44;38.87;;;36.97;;
908;SDS011;441;51.192;6.788;2023-09-08T02:07:11;41.03;;;39.03;;
908;SDS011;441;51.192;6.788;2023-09-08T02:09:38;37.33;;;35.33;;
908;SDS011;441;51.192;6.788;2023-09-08T02:12:05;37.87;;;35.87;;
908;SDS011;441;51.192;6.788;2023-09-08T02:14:32;37.80;;;35.90;;
908;SDS011;441;51.192;6.788;2023-09-08T02:17:00;38.50;;;36.60;;
908;SDS011;441;51.192;6.788;2023-09-08T02:19:28;37.77;;;35.80;;
908;SDS011;441;51.192;6.788;2023-09-08T02:21:54;37.13;;;35.20;;
908;SDS011;441;51.192;6.788;2023-09-08T02:24:21;36.67;;;34.87;;
908;SDS011;441;51.192;6.788;2023-09-08T02:26:49;40.00;;;38.00;;
908;SDS011;441;51.192;6.788;2023-09-08T02:29:16;36.60;;;34.80;;
908;SDS011;441;51.192;6.788;2023-09-08T02:31:42;38.53;;;36.63;;
908;SDS011;441;51.192;6.788;2023-09-08T02:34:11;37.87;;;35.77;;
908;SDS011;441;51.192;6.788;2023-09-08T02:36:38;37.70;;;35.80;;
908;SDS011;441;51.192;6.788;2023-09-08T02:39:05;35.90;;;34.10;;
908;SDS011;441;51.192;6.788;2023-09-08T02:41:33;37.97;;;35.87;;
908;SDS011;441;51.192;6.788;2023-09-08T02:43:59;37.17;;;35.37;;
908;SDS011;441;51.192;6.788;2023-09-08T02:46:26;37.43;;;35.37;;
908;SDS011;441;51.192;6.788;2023-09-08T02:48:53;36.97;;;35.07;;
908;SDS011;441;51.192;6.788;2023-09-08T02:51:21;37.57;;;35.67;;
908;SDS011;441;51.192;6.788;2023-09-08T02:53:48;36.23;;;34.33;;
908;SDS011;441;51.192;6.788;2023-09-08T02:56:15;35.47;;;33.50;;
908;SDS011;441;51.192;6.788;2023-09-08T02:58:42;36.80;;;34.97;;
908;SDS011;441;51.192;6.788;2023-09-08T03:01:10;38.73;;;36.40;;
908;SDS011;441;51.192;6.788;2023-09-08T03:03:39;39.27;;;37.27;;
908;SDS011;441;51.192;6.788;2023-09-08T03:06:06;38.00;;;35.70;;
908;SDS011;441;51.192;6.788;2023-09-08T03:08:35;39.93;;;37.73;;
908;SDS011;441;51.192;6.788;2023-09-08T03:11:03;40.80;;;38.63;;
908;SDS011;441;51.192;6.788;2023-09-08T03:13:31;36.23;;;34.33;;
908;SDS011;441;51.192;6.788;2023-09-08T03:16:01;38.33;;;36.20;;
908;SDS011;441;51.192;6.788;2023-09-08T03:18:30;38.17;;;36.07;;
908;SDS011;441;51.192;6.788;2023-09-08T03:20:57;37.80;;;35.60;;
908;SDS011;441;51.192;6.788;2023-09-08T03:23:25;36.87;;;34.87;;
908;SDS011;441;51.192;6.788;2023-09-08T03:25:54;38.37;;;36.37;;
908;SDS011;441;51.192;6.788;2023-09-08T03:28:20;44.23;;;41.83;;
908;SDS011;441;51.192;6.788;2023-09-08T03:30:47;42.77;;;40.60;;
908;SDS011;441;51.192;6.788;2023-09-08T03:33:14;43.27;;;41.17;;
908;SDS011;441;51.192;6.788;2023-09-08T03:35:41;41.37;;;39.27;;
908;SDS011;441;51.192;6.788;2023-09-08T03:38:08;42.50;;;40.30;;
908;SDS011;441;51.192;6.788;2023-09-08T03:40:35;43.20;;;41.10;;
908;SDS011;441;51.192;6.788;2023-09-08T03:43:04;42.77;;;40.57;;
908;SDS011;441;51.192;6.788;2023-09-08T03:45:31;41.80;;;39.43;;
908;SDS011;441;51.192;6.788;2023-09-08T03:47:58;42.23;;;39.97;;
908;SDS011;441;51.192;6.788;2023-09-08T03:50:25;40.93;;;38.83;;
908;SDS011;441;51.192;6.788;2023-09-08T03:52:52;38.47;;;36.47;;
908;SDS011;441;51.192;6.788;2023-09-08T03:55:19;40.70;;;38.60;;
908;SDS011;441;51.192;6.788;2023-09-08T03:57:46;43.50;;;41.30;;
908;SDS011;441;51.192;6.788;2023-09-08T04:00:14;42.80;;;40.47;;
908;SDS011;441;51.192;6.788;2023-09-08T04:02:47;43.07;;;40.77;;
908;SDS011;441;51.192;6.788;2023-09-08T04:05:15;42.60;;;40.40;;
908;SDS011;441;51.192;6.788;2023-09-08T04:07:42;41.67;;;39.47;;
908;SDS011;441;51.192;6.788;2023-09-08T04:10:09;44.93;;;42.63;;
908;SDS011;441;51.192;6.788;2023-09-08T04:12:36;42.87;;;40.67;;
908;SDS011;441;51.192;6.788;2023-09-08T04:15:03;43.93;;;41.57;;
908;SDS011;441;51.192;6.788;2023-09-08T04:17:32;42.40;;;40.10;;
908;SDS011;441;51.192;6.788;2023-09-08T04:20:01;44.00;;;41.53;;
908;SDS011;441;51.192;6.788;2023-09-08T04:22:29;41.90;;;39.50;;
908;SDS011;441;51.192;6.788;2023-09-08T04:24:56;41.10;;;38.87;;
908;SDS011;441;51.192;6.788;2023-09-08T04:27:23;43.67;;;41.37;;
908;SDS011;441;51.192;6.788;2023-09-08T04:29:50;43.03;;;40.83;;
908;SDS011;441;51.192;6.788;2023-09-08T04:32:17;41.10;;;38.90;;
908;SDS011;441;51.192;6.788;2023-09-08T04:34:45;42.60;;;40.33;;
908;SDS011;441;51.192;6.788;2023-09-08T04:37:14;41.83;;;39.30;;
908;SDS011;441;51.192;6.788;2023-09-08T04:39:41;43.10;;;39.80;;
908;SDS011;441;51.192;6.788;2023-09-08T04:42:09;42.13;;;39.13;;
908;SDS011;441;51.192;6.788;2023-09-08T04:44:35;43.17;;;40.57;;
908;SDS011;441;51.192;6.788;2023-09-08T04:47:03;41.60;;;38.90;;
908;SDS011;441;51.192;6.788;2023-09-08T04:49:30;39.40;;;37.07;;
908;SDS011;441;51.192;6.788;2023-09-08T04:51:58;38.97;;;36.90;;
908;SDS011;441;51.192;6.788;2023-09-08T04:54:25;41.50;;;38.87;;
908;SDS011;441;51.192;6.788;2023-09-08T04:56:52;40.27;;;38.17;;
908;SDS011;441;51.192;6.788;2023-09-08T04:59:19;39.30;;;37.20;;
908;SDS011;441;51.192;6.788;2023-09-08T05:01:47;39.30;;;37.30;;
908;SDS011;441;51.192;6.788;2023-09-08T05:04:15;39.83;;;37.63;;
908;SDS011;441;51.192;6.788;2023-09-08T05:06:42;38.87;;;36.60;;
908;SDS011;441;51.192;6.788;2023-09-08T05:09:11;40.83;;;38.70;;
908;SDS011;441;51.192;6.788;2023-09-08T05:11:38;40.70;;;38.40;;
908;SDS011;441;51.192;6.788;2023-09-08T05:14:05;41.77;;;39.77;;
908;SDS011;441;51.192;6.788;2023-09-08T05:16:32;42.43;;;39.93;;
908;SDS011;441;51.192;6.788;2023-09-08T05:19:11;41.00;;;38.80;;
908;SDS011;441;51.192;6.788;2023-09-08T05:21:39;40.27;;;37.90;;
908;SDS011;441;51.192;6.788;2023-09-08T05:24:06;43.60;;;41.40;;
908;SDS011;441;51.192;6.788;2023-09-08T05:26:36;41.33;;;38.73;;
908;SDS011;441;51.192;6.788;2023-09-08T05:29:04;40.00;;;37.70;;
908;SDS011;441;51.192;6.788;2023-09-08T05:31:31;40.40;;;38.20;;
908;SDS011;441;51.192;6.788;2023-09-08T05:33:58;42.27;;;39.87;;
908;SDS011;441;51.192;6.788;2023-09-08T05:36:25;41.10;;;38.90;;
908;SDS011;441;51.192;6.788;2023-09-08T05:38:54;38.93;;;37.03;;
908;SDS011;441;51.192;6.788;2023-09-08T05:41:21;41.03;;;38.93;;
908;SDS011;441;51.192;6.788;2023-09-08T05:43:49;40.50;;;38.50;;
908;SDS011;441;51.192;6.788;2023-09-08T05:46:16;42.50;;;40.10;;
908;SDS011;441;51.192;6.788;2023-09-08T05:48:43;41.10;;;39.10;;
908;SDS011;441;51.192;6.788;2023-09-08T05:51:10;43.20;;;41.00;;
908;SDS011;441;51.192;6.788;2023-09-08T05:53:37;41.80;;;39.70;;
908;SDS011;441;51.192;6.788;2023-09-08T05:56:05;43.43;;;41.10;;
908;SDS011;441;51.192;6.788;2023-09-08T05:58:32;42.03;;;39.93;;
908;SDS011;441;51.192;6.788;2023-09-08T06:01:01;41.53;;;39.63;;
908;SDS011;441;51.192;6.788;2023-09-08T06:03:28;45.43;;;43.33;;
908;SDS011;441;51.192;6.788;2023-09-08T06:05:55;45.53;;;43.33;;
908;SDS011;441;51.192;6.788;2023-09-08T06:08:22;44.83;;;42.33;;
908;SDS011;441;51.192;6.788;2023-09-08T06:10:49;44.80;;;42.60;;
908;SDS011;441;51.192;6.788;2023-09-08T06:13:16;44.47;;;42.30;;
908;SDS011;441;51.192;6.788;2023-09-08T06:15:43;46.40;;;44.00;;
908;SDS011;441;51.192;6.788;2023-09-08T06:18:11;44.07;;;42.07;;
908;SDS011;441;51.192;6.788;2023-09-08T06:20:43;41.83;;;39.83;;
908;SDS011;441;51.192;6.788;2023-09-08T06:23:11;42.10;;;40.03;;
908;SDS011;441;51.192;6.788;2023-09-08T06:25:38;43.47;;;40.93;;
908;SDS011;441;51.192;6.788;2023-09-08T06:28:05;42.00;;;40.00;;
908;SDS011;441;51.192;6.788;2023-09-08T06:30:32;44.57;;;42.37;;
908;SDS011;441;51.192;6.788;2023-09-08T06:32:58;42.73;;;40.63;;
908;SDS011;441;51.192;6.788;2023-09-08T06:35:27;41.07;;;39.00;;
908;SDS011;441;51.192;6.788;2023-09-08T06:37:54;42.20;;;40.00;;
908;SDS011;441;51.192;6.788;2023-09-08T06:40:22;46.67;;;44.37;;
908;SDS011;441;51.192;6.788;2023-09-08T06:42:49;43.90;;;41.90;;
908;SDS011;441;51.192;6.788;2023-09-08T06:45:16;42.50;;;40.47;;
908;SDS011;441;51.192;6.788;2023-09-08T06:47:43;43.87;;;41.57;;
908;SDS011;441;51.192;6.788;2023-09-08T06:50:10;43.10;;;40.83;;
908;SDS011;441;51.192;6.788;2023-09-08T06:52:39;44.03;;;41.83;;
908;SDS011;441;51.192;6.788;2023-09-08T06:55:06;41.67;;;39.47;;
908;SDS011;441;51.192;6.788;2023-09-08T06:57:34;41.80;;;39.80;;
908;SDS011;441;51.192;6.788;2023-09-08T07:00:01;44.27;;;42.17;;
908;SDS011;441;51.192;6.788;2023-09-08T07:02:32;45.23;;;43.03;;
908;SDS011;441;51.192;6.788;2023-09-08T07:04:59;45.67;;;43.47;;
908;SDS011;441;51.192;6.788;2023-09-08T07:07:31;44.13;;;41.37;;
908;SDS011;441;51.192;6.788;2023-09-08T07:09:59;43.17;;;40.97;;
908;SDS011;441;51.192;6.788;2023-09-08T07:12:26;42.40;;;40.37;;
908;SDS011;441;51.192;6.788;2023-09-08T07:14:53;44.10;;;41.90;;
908;SDS011;441;51.192;6.788;2023-09-08T07:17:20;42.00;;;39.83;;
908;SDS011;441;51.192;6.788;2023-09-08T07:19:48;41.40;;;39.37;;
908;SDS011;441;51.192;6.788;2023-09-08T07:22:15;44.53;;;42.33;;
908;SDS011;441;51.192;6.788;2023-09-08T07:24:42;45.80;;;43.40;;
908;SDS011;441;51.192;6.788;2023-09-08T07:27:10;41.67;;;39.27;;
908;SDS011;441;51.192;6.788;2023-09-08T07:29:39;44.03;;;41.90;;
908;SDS011;441;51.192;6.788;2023-09-08T07:32:06;42.20;;;40.30;;
908;SDS011;441;51.192;6.788;2023-09-08T07:34:33;48.37;;;46.07;;
908;SDS011;441;51.192;6.788;2023-09-08T07:37:00;46.27;;;43.97;;
908;SDS011;441;51.192;6.788;2023-09-08T07:39:27;44.83;;;42.63;;
908;SDS011;441;51.192;6.788;2023-09-08T07:41:55;45.77;;;43.57;;
908;SDS011;441;51.192;6.788;2023-09-08T07:44:23;45.63;;;43.53;;
908;SDS011;441;51.192;6.788;2023-09-08T07:46:51;47.03;;;44.83;;
908;SDS011;441;51.192;6.788;2023-09-08T07:49:18;48.63;;;46.23;;
908;SDS011;441;51.192;6.788;2023-09-08T07:51:45;45.70;;;43.50;;
908;SDS011;441;51.192;6.788;2023-09-08T07:54:12;43.17;;;40.87;;
908;SDS011;441;51.192;6.788;2023-09-08T07:56:39;43.03;;;40.87;;
908;SDS011;441;51.192;6.788;2023-09-08T07:59:06;45.37;;;43.07;;
908;SDS011;441;51.192;6.788;2023-09-08T08:01:34;41.73;;;39.73;;
908;SDS011;441;51.192;6.788;2023-09-08T08:04:01;43.40;;;41.10;;
908;SDS011;441;51.192;6.788;2023-09-08T08:06:28;42.63;;;40.43;;
908;SDS011;441;51.192;6.788;2023-09-08T08:08:55;45.13;;;42.93;;
908;SDS011;441;51.192;6.788;2023-09-08T08:11:22;45.53;;;43.20;;
908;SDS011;441;51.192;6.788;2023-09-08T08:13:50;44.57;;;42.37;;
908;SDS011;441;51.192;6.788;2023-09-08T08:16:17;42.67;;;40.27;;
908;SDS011;441;51.192;6.788;2023-09-08T08:18:46;44.00;;;41.90;;
908;SDS011;441;51.192;6.788;2023-09-08T08:21:13;41.87;;;39.77;;
908;SDS011;441;51.192;6.788;2023-09-08T08:23:40;41.70;;;39.50;;
908;SDS011;441;51.192;6.788;2023-09-08T08:26:07;43.43;;;41.33;;
908;SDS011;441;51.192;6.788;2023-09-08T08:28:34;43.50;;;41.40;;
908;SDS011;441;51.192;6.788;2023-09-08T08:31:01;41.47;;;39.47;;
908;SDS011;441;51.192;6.788;2023-09-08T08:33:28;41.83;;;39.83;;
908;SDS011;441;51.192;6.788;2023-09-08T08:35:57;45.30;;;43.10;;
908;SDS011;441;51.192;6.788;2023-09-08T08:38:24;46.50;;;44.20;;
908;SDS011;441;51.192;6.788;2023-09-08T08:40:50;43.03;;;41.03;;
908;SDS011;441;51.192;6.788;2023-09-08T08:43:17;43.03;;;41.13;;
908;SDS011;441;51.192;6.788;2023-09-08T08:45:45;44.70;;;42.50;;
908;SDS011;441;51.192;6.788;2023-09-08T08:48:13;45.87;;;43.57;;
908;SDS011;441;51.192;6.788;2023-09-08T08:50:41;42.30;;;40.30;;
908;SDS011;441;51.192;6.788;2023-09-08T08:53:11;42.60;;;40.50;;
908;SDS011;441;51.192;6.788;2023-09-08T08:55:38;41.77;;;39.57;;
908;SDS011;441;51.192;6.788;2023-09-08T08:58:06;42.13;;;40.03;;
908;SDS011;441;51.192;6.788;2023-09-08T09:00:34;44.50;;;42.30;;
908;SDS011;441;51.192;6.788;2023-09-08T09:03:03;45.10;;;43.00;;
908;SDS011;441;51.192;6.788;2023-09-08T09:05:30;44.37;;;42.27;;
908;SDS011;441;51.192;6.788;2023-09-08T09:07:58;41.53;;;39.63;;
908;SDS011;441;51.192;6.788;2023-09-08T09:10:29;43.70;;;41.60;;
908;SDS011;441;51.192;6.788;2023-09-08T09:12:57;45.23;;;43.23;;
908;SDS011;441;51.192;6.788;2023-09-08T09:15:30;41.77;;;39.47;;
908;SDS011;441;51.192;6.788;2023-09-08T09:18:01;42.53;;;40.53;;
908;SDS011;441;51.192;6.788;2023-09-08T09:20:29;42.20;;;40.23;;
908;SDS011;441;51.192;6.788;2023-09-08T09:22:56;41.00;;;39.00;;
908;SDS011;441;51.192;6.788;2023-09-08T09:25:24;41.67;;;39.67;;
908;SDS011;441;51.192;6.788;2023-09-08T09:27:53;40.80;;;38.70;;
908;SDS011;441;51.192;6.788;2023-09-08T09:30:21;42.73;;;40.73;;
908;SDS011;441;51.192;6.788;2023-09-08T09:32:49;41.63;;;39.63;;
908;SDS011;441;51.192;6.788;2023-09-08T09:35:40;40.13;;;38.23;;
908;SDS011;441;51.192;6.788;2023-09-08T09:38:08;41.47;;;39.40;;
908;SDS011;441;51.192;6.788;2023-09-08T09:40:35;40.77;;;38.87;;
908;SDS011;441;51.192;6.788;2023-09-08T09:43:04;39.47;;;37.37;;
908;SDS011;441;51.192;6.788;2023-09-08T09:45:32;41.70;;;39.80;;
908;SDS011;441;51.192;6.788;2023-09-08T09:48:00;41.57;;;39.60;;
908;SDS011;441;51.192;6.788;2023-09-08T09:50:29;41.27;;;39.27;;
908;SDS011;441;51.192;6.788;2023-09-08T09:52:58;41.77;;;39.43;;
908;SDS011;441;51.192;6.788;2023-09-08T09:55:26;43.43;;;41.47;;
908;SDS011;441;51.192;6.788;2023-09-08T09:57:55;46.33;;;44.23;;
908;SDS011;441;51.192;6.788;2023-09-08T10:00:27;45.53;;;43.43;;
908;SDS011;441;51.192;6.788;2023-09-08T10:02:54;43.93;;;41.93;;
908;SDS011;441;51.192;6.788;2023-09-08T10:05:23;44.70;;;42.60;;
908;SDS011;441;51.192;6.788;2023-09-08T10:07:50;42.80;;;40.70;;
908;SDS011;441;51.192;6.788;2023-09-08T10:10:18;44.10;;;42.10;;
908;SDS011;441;51.192;6.788;2023-09-08T10:12:49;44.43;;;42.43;;
908;SDS011;441;51.192;6.788;2023-09-08T10:15:20;42.83;;;40.83;;
908;SDS011;441;51.192;6.788;2023-09-08T10:17:52;44.10;;;42.00;;
908;SDS011;441;51.192;6.788;2023-09-08T10:20:22;43.73;;;41.63;;
908;SDS011;441;51.192;6.788;2023-09-08T10:22:52;43.00;;;40.80;;
908;SDS011;441;51.192;6.788;2023-09-08T10:25:21;42.07;;;39.93;;
908;SDS011;441;51.192;6.788;2023-09-08T10:27:50;40.83;;;38.73;;
908;SDS011;441;51.192;6.788;2023-09-08T10:30:18;42.13;;;40.03;;
908;SDS011;441;51.192;6.788;2023-09-08T10:32:46;45.90;;;43.77;;
908;SDS011;441;51.192;6.788;2023-09-08T10:35:17;45.20;;;43.00;;
908;SDS011;441;51.192;6.788;2023-09-08T10:37:44;45.13;;;42.67;;
908;SDS011;441;51.192;6.788;2023-09-08T10:40:21;42.10;;;40.10;;
908;SDS011;441;51.192;6.788;2023-09-08T10:42:53;45.07;;;42.77;;
908;SDS011;441;51.192;6.788;2023-09-08T10:45:32;43.23;;;41.10;;
908;SDS011;441;51.192;6.788;2023-09-08T10:47:59;44.33;;;42.03;;
908;SDS011;441;51.192;6.788;2023-09-08T10:50:29;43.20;;;41.20;;
908;SDS011;441;51.192;6.788;2023-09-08T10:53:09;45.63;;;43.53;;
908;SDS011;441;51.192;6.788;2023-09-08T10:55:39;43.87;;;41.77;;
908;SDS011;441;51.192;6.788;2023-09-08T10:58:09;44.07;;;41.97;;
908;SDS011;441;51.192;6.788;2023-09-08T11:00:43;43.53;;;41.33;;
908;SDS011;441;51.192;6.788;2023-09-08T11:03:11;43.43;;;41.33;;
908;SDS011;441;51.192;6.788;2023-09-08T11:05:40;44.73;;;42.53;;
908;SDS011;441;51.192;6.788;2023-09-08T11:08:09;43.03;;;40.83;;
908;SDS011;441;51.192;6.788;2023-09-08T11:10:36;41.70;;;39.60;;
908;SDS011;441;51.192;6.788;2023-09-08T11:13:05;42.57;;;40.47;;
908;SDS011;441;51.192;6.788;2023-09-08T11:15:32;42.77;;;40.77;;
908;SDS011;441;51.192;6.788;2023-09-08T11:18:04;41.10;;;39.07;;
908;SDS011;441;51.192;6.788;2023-09-08T11:20:32;44.83;;;42.63;;
908;SDS011;441;51.192;6.788;2023-09-08T11:23:01;44.13;;;42.13;;
908;SDS011;441;51.192;6.788;2023-09-08T11:25:30;44.50;;;42.40;;
908;SDS011;441;51.192;6.788;2023-09-08T11:27:58;44.00;;;41.90;;
908;SDS011;441;51.192;6.788;2023-09-08T11:30:25;44.57;;;42.37;;
908;SDS011;441;51.192;6.788;2023-09-08T11:32:53;46.77;;;44.47;;
908;SDS011;441;51.192;6.788;2023-09-08T11:35:20;43.73;;;41.63;;
908;SDS011;441;51.192;6.788;2023-09-08T11:37:47;45.80;;;43.60;;
908;SDS011;441;51.192;6.788;2023-09-08T11:40:18;42.23;;;40.23;;
908;SDS011;441;51.192;6.788;2023-09-08T11:42:46;44.90;;;42.77;;
908;SDS011;441;51.192;6.788;2023-09-08T11:45:13;45.47;;;43.33;;
908;SDS011;441;51.192;6.788;2023-09-08T11:47:43;44.47;;;42.37;;
908;SDS011;441;51.192;6.788;2023-09-08T11:50:10;47.03;;;44.67;;
908;SDS011;441;51.192;6.788;2023-09-08T11:52:40;46.33;;;44.13;;
908;SDS011;441;51.192;6.788;2023-09-08T11:55:09;46.87;;;44.67;;
908;SDS011;441;51.192;6.788;2023-09-08T11:57:39;42.80;;;40.33;;
908;SDS011;441;51.192;6.788;2023-09-08T12:00:07;41.87;;;39.77;;
908;SDS011;441;51.192;6.788;2023-09-08T12:02:37;47.60;;;45.30;;
908;SDS011;441;51.192;6.788;2023-09-08T12:05:04;45.13;;;42.93;;
908;SDS011;441;51.192;6.788;2023-09-08T12:07:32;46.67;;;44.40;;
908;SDS011;441;51.192;6.788;2023-09-08T12:09:58;44.77;;;42.63;;
908;SDS011;441;51.192;6.788;2023-09-08T12:12:34;43.00;;;40.90;;
908;SDS011;441;51.192;6.788;2023-09-08T12:15:09;44.23;;;41.93;;
908;SDS011;441;51.192;6.788;2023-09-08T12:17:46;45.47;;;43.27;;
908;SDS011;441;51.192;6.788;2023-09-08T12:20:13;46.37;;;44.07;;
908;SDS011;441;51.192;6.788;2023-09-08T12:22:47;46.93;;;44.63;;
908;SDS011;441;51.192;6.788;2023-09-08T12:25:15;47.73;;;45.37;;
908;SDS011;441;51.192;6.788;2023-09-08T12:27:43;44.30;;;42.20;;
908;SDS011;441;51.192;6.788;2023-09-08T12:30:15;48.50;;;46.00;;
908;SDS011;441;51.192;6.788;2023-09-08T12:32:44;46.20;;;44.00;;
908;SDS011;441;51.192;6.788;2023-09-08T12:35:12;48.57;;;46.10;;
908;SDS011;441;51.192;6.788;2023-09-08T12:37:39;47.43;;;45.03;;
908;SDS011;441;51.192;6.788;2023-09-08T12:40:07;46.90;;;44.60;;
908;SDS011;441;51.192;6.788;2023-09-08T12:42:35;45.07;;;42.97;;
908;SDS011;441;51.192;6.788;2023-09-08T12:45:03;49.03;;;46.73;;
908;SDS011;441;51.192;6.788;2023-09-08T12:47:31;47.43;;;45.03;;
908;SDS011;441;51.192;6.788;2023-09-08T12:50:00;45.53;;;43.27;;
908;SDS011;441;51.192;6.788;2023-09-08T12:52:27;46.97;;;44.77;;
908;SDS011;441;51.192;6.788;2023-09-08T12:54:54;46.67;;;44.37;;
908;SDS011;441;51.192;6.788;2023-09-08T12:57:21;46.60;;;44.30;;
908;SDS011;441;51.192;6.788;2023-09-08T12:59:47;45.87;;;43.67;;
908;SDS011;441;51.192;6.788;2023-09-08T13:02:17;46.67;;;44.40;;
908;SDS011;441;51.192;6.788;2023-09-08T13:04:44;48.00;;;45.30;;
908;SDS011;441;51.192;6.788;2023-09-08T13:07:13;47.07;;;44.77;;
908;SDS011;441;51.192;6.788;2023-09-08T13:09:40;45.60;;;43.30;;
908;SDS011;441;51.192;6.788;2023-09-08T13:12:07;49.43;;;47.13;;
908;SDS011;441;51.192;6.788;2023-09-08T13:14:35;47.37;;;45.07;;
908;SDS011;441;51.192;6.788;2023-09-08T13:17:02;51.47;;;48.73;;
908;SDS011;441;51.192;6.788;2023-09-08T13:19:30;52.30;;;49.80;;
908;SDS011;441;51.192;6.788;2023-09-08T13:21:58;47.30;;;45.00;;
908;SDS011;441;51.192;6.788;2023-09-08T13:24:25;46.20;;;43.90;;
908;SDS011;441;51.192;6.788;2023-09-08T13:26:52;47.83;;;45.43;;
908;SDS011;441;51.192;6.788;2023-09-08T13:29:19;46.23;;;44.00;;
908;SDS011;441;51.192;6.788;2023-09-08T13:31:46;49.90;;;47.60;;
908;SDS011;441;51.192;6.788;2023-09-08T13:34:13;47.30;;;45.00;;
908;SDS011;441;51.192;6.788;2023-09-08T13:36:41;51.33;;;48.13;;
908;SDS011;441;51.192;6.788;2023-09-08T13:39:08;45.23;;;43.00;;
908;SDS011;441;51.192;6.788;2023-09-08T13:41:48;46.23;;;44.00;;
908;SDS011;441;51.192;6.788;2023-09-08T13:44:16;45.50;;;43.30;;
908;SDS011;441;51.192;6.788;2023-09-08T13:46:45;51.23;;;48.83;;
908;SDS011;441;51.192;6.788;2023-09-08T13:49:12;47.10;;;44.80;;
908;SDS011;441;51.192;6.788;2023-09-08T13:51:40;47.27;;;44.97;;
908;SDS011;441;51.192;6.788;2023-09-08T13:54:08;48.10;;;45.80;;
908;SDS011;441;51.192;6.788;2023-09-08T13:56:37;51.33;;;48.93;;
908;SDS011;441;51.192;6.788;2023-09-08T13:59:05;48.70;;;46.40;;
908;SDS011;441;51.192;6.788;2023-09-08T14:01:32;49.80;;;47.40;;
908;SDS011;441;51.192;6.788;2023-09-08T14:04:00;49.97;;;47.57;;
908;SDS011;441;51.192;6.788;2023-09-08T14:06:27;50.20;;;47.90;;
908;SDS011;441;51.192;6.788;2023-09-08T14:08:55;49.37;;;46.97;;
908;SDS011;441;51.192;6.788;2023-09-08T14:11:22;46.27;;;43.97;;
908;SDS011;441;51.192;6.788;2023-09-08T14:13:50;48.37;;;46.17;;
908;SDS011;441;51.192;6.788;2023-09-08T14:16:17;50.50;;;48.13;;
908;SDS011;441;51.192;6.788;2023-09-08T14:18:44;50.73;;;48.33;;
908;SDS011;441;51.192;6.788;2023-09-08T14:21:11;49.00;;;46.60;;
908;SDS011;441;51.192;6.788;2023-09-08T14:23:38;50.73;;;47.97;;
908;SDS011;441;51.192;6.788;2023-09-08T14:26:07;50.87;;;48.47;;
908;SDS011;441;51.192;6.788;2023-09-08T14:28:34;49.00;;;46.60;;
908;SDS011;441;51.192;6.788;2023-09-08T14:31:01;54.10;;;51.80;;
908;SDS011;441;51.192;6.788;2023-09-08T14:33:28;56.17;;;53.83;;
908;SDS011;441;51.192;6.788;2023-09-08T14:35:56;56.87;;;54.47;;
908;SDS011;441;51.192;6.788;2023-09-08T14:38:23;55.73;;;53.50;;
908;SDS011;441;51.192;6.788;2023-09-08T14:40:54;53.47;;;51.27;;
908;SDS011;441;51.192;6.788;2023-09-08T14:43:23;55.80;;;53.40;;
908;SDS011;441;51.192;6.788;2023-09-08T14:45:50;55.80;;;53.50;;
908;SDS011;441;51.192;6.788;2023-09-08T14:48:17;56.83;;;54.23;;
908;SDS011;441;51.192;6.788;2023-09-08T14:50:45;57.63;;;55.33;;
908;SDS011;441;51.192;6.788;2023-09-08T14:53:11;58.00;;;55.50;;
908;SDS011;441;51.192;6.788;2023-09-08T14:55:38;58.67;;;56.27;;
908;SDS011;441;51.192;6.788;2023-09-08T14:58:05;55.03;;;52.83;;
908;SDS011;441;51.192;6.788;2023-09-08T15:00:34;55.50;;;53.20;;
908;SDS011;441;51.192;6.788;2023-09-08T15:03:01;59.00;;;56.40;;
908;SDS011;441;51.192;6.788;2023-09-08T15:05:29;61.90;;;59.30;;
908;SDS011;441;51.192;6.788;2023-09-08T15:07:57;59.07;;;56.67;;
908;SDS011;441;51.192;6.788;2023-09-08T15:10:24;57.70;;;55.13;;
908;SDS011;441;51.192;6.788;2023-09-08T15:12:51;57.93;;;55.43;;
908;SDS011;441;51.192;6.788;2023-09-08T15:15:18;59.00;;;56.70;;
908;SDS011;441;51.192;6.788;2023-09-08T15:17:50;60.80;;;58.40;;
908;SDS011;441;51.192;6.788;2023-09-08T15:20:17;57.00;;;54.60;;
908;SDS011;441;51.192;6.788;2023-09-08T15:22:45;60.77;;;58.27;;